Hawk, Alabama
Current Conditions -  °F | °C
As of 6:35 AM on Saturday 01 Nov 2014 (Local Time) from KCTJ Reporting Station
Overcast Overcast  
Wind Chill: 29°   Ceiling: 3500
Heat Index: 37°   Visibility: 10mi
Dew Point: 28°   Wind: 15mph
Humidity: 70%   Direction: 330°NNW
Pressure: 30.01"   Gusts: 26mph
Location:  33.3575°N, 85.3468°W
Report Text: KCTJ 011135Z AUTO 33013G23KT 10SM OVC035 03/M02 A3001 RMK AO2
Loading
Personal Weather Stations






























Interactive Weather Map New forecast layout! Learn more

10-Day Weather Forecast

Advertisements
Track Severe Weather on mobile